sensor_id;sensor_type;location;lat;lon;timestamp;P1;P2;P0
57049;PMS7003;42935;50.966;16.992;2022-08-21T00:03:04;28;26;16
57049;PMS7003;42935;50.966;16.992;2022-08-21T00:06:16;29;24;17
57049;PMS7003;42935;50.966;16.992;2022-08-21T00:09:27;31;29;19
57049;PMS7003;42935;50.966;16.992;2022-08-21T00:12:39;28;26;18
57049;PMS7003;42935;50.966;16.992;2022-08-21T00:15:50;30;26;17
57049;PMS7003;42935;50.966;16.992;2022-08-21T00:19:02;30;26;17
57049;PMS7003;42935;50.966;16.992;2022-08-21T00:22:14;30;25;19
57049;PMS7003;42935;50.966;16.992;2022-08-21T00:25:26;26;24;17
57049;PMS7003;42935;50.966;16.992;2022-08-21T00:28:39;28;25;17
57049;PMS7003;42935;50.966;16.992;2022-08-21T00:32:00;30;27;19
57049;PMS7003;42935;50.966;16.992;2022-08-21T00:35:17;29;27;16
57049;PMS7003;42935;50.966;16.992;2022-08-21T00:38:31;25;22;16
57049;PMS7003;42935;50.966;16.992;2022-08-21T00:41:43;28;25;16
57049;PMS7003;42935;50.966;16.992;2022-08-21T00:44:59;25;23;16
57049;PMS7003;42935;50.966;16.992;2022-08-21T00:48:11;25;23;14
57049;PMS7003;42935;50.966;16.992;2022-08-21T00:51:24;20;18;13
57049;PMS7003;42935;50.966;16.992;2022-08-21T00:54:48;22;20;13
57049;PMS7003;42935;50.966;16.992;2022-08-21T00:58:00;17;15;10
57049;PMS7003;42935;50.966;16.992;2022-08-21T01:01:21;17;16;12
57049;PMS7003;42935;50.966;16.992;2022-08-21T01:04:34;18;17;12
57049;PMS7003;42935;50.966;16.992;2022-08-21T01:07:45;18;17;13
57049;PMS7003;42935;50.966;16.992;2022-08-21T01:10:56;16;15;10
57049;PMS7003;42935;50.966;16.992;2022-08-21T01:14:10;16;15;11
57049;PMS7003;42935;50.966;16.992;2022-08-21T01:17:24;14;14;10
57049;PMS7003;42935;50.966;16.992;2022-08-21T01:20:42;17;17;11
57049;PMS7003;42935;50.966;16.992;2022-08-21T01:23:55;18;16;11
57049;PMS7003;42935;50.966;16.992;2022-08-21T01:27:06;19;16;11
57049;PMS7003;42935;50.966;16.992;2022-08-21T01:30:23;20;18;12
57049;PMS7003;42935;50.966;16.992;2022-08-21T01:33:39;15;15;11
57049;PMS7003;42935;50.966;16.992;2022-08-21T01:36:50;15;13;9
57049;PMS7003;42935;50.966;16.992;2022-08-21T01:40:02;13;13;10
57049;PMS7003;42935;50.966;16.992;2022-08-21T01:43:14;16;14;11
57049;PMS7003;42935;50.966;16.992;2022-08-21T01:46:25;11;10;7
57049;PMS7003;42935;50.966;16.992;2022-08-21T01:49:36;11;11;8
57049;PMS7003;42935;50.966;16.992;2022-08-21T01:52:46;13;11;9
57049;PMS7003;42935;50.966;16.992;2022-08-21T01:55:58;10;10;7
57049;PMS7003;42935;50.966;16.992;2022-08-21T01:59:09;12;10;7
57049;PMS7003;42935;50.966;16.992;2022-08-21T02:02:21;10;10;7
57049;PMS7003;42935;50.966;16.992;2022-08-21T02:05:31;11;9;7
57049;PMS7003;42935;50.966;16.992;2022-08-21T02:08:41;11;9;7
57049;PMS7003;42935;50.966;16.992;2022-08-21T02:11:55;8;8;6
57049;PMS7003;42935;50.966;16.992;2022-08-21T02:15:05;13;8;7
57049;PMS7003;42935;50.966;16.992;2022-08-21T02:18:18;8;8;6
57049;PMS7003;42935;50.966;16.992;2022-08-21T02:21:30;10;10;7
57049;PMS7003;42935;50.966;16.992;2022-08-21T02:24:46;8;7;5
57049;PMS7003;42935;50.966;16.992;2022-08-21T02:27:57;8;7;6
57049;PMS7003;42935;50.966;16.992;2022-08-21T02:31:09;8;7;6
57049;PMS7003;42935;50.966;16.992;2022-08-21T02:34:17;8;7;6
57049;PMS7003;42935;50.966;16.992;2022-08-21T02:37:30;10;9;6
57049;PMS7003;42935;50.966;16.992;2022-08-21T02:40:41;13;11;7
57049;PMS7003;42935;50.966;16.992;2022-08-21T02:43:50;11;10;7
57049;PMS7003;42935;50.966;16.992;2022-08-21T02:47:02;11;10;7
57049;PMS7003;42935;50.966;16.992;2022-08-21T02:50:12;11;10;8
57049;PMS7003;42935;50.966;16.992;2022-08-21T02:53:23;11;9;7
57049;PMS7003;42935;50.966;16.992;2022-08-21T02:56:34;11;11;8
57049;PMS7003;42935;50.966;16.992;2022-08-21T02:59:45;10;10;6
57049;PMS7003;42935;50.966;16.992;2022-08-21T03:02:56;8;7;6
57049;PMS7003;42935;50.966;16.992;2022-08-21T03:06:10;10;8;6
57049;PMS7003;42935;50.966;16.992;2022-08-21T03:09:22;10;7;6
57049;PMS7003;42935;50.966;16.992;2022-08-21T03:12:33;10;9;7
57049;PMS7003;42935;50.966;16.992;2022-08-21T03:15:44;10;8;6
57049;PMS7003;42935;50.966;16.992;2022-08-21T03:18:54;8;8;6
57049;PMS7003;42935;50.966;16.992;2022-08-21T03:22:04;12;10;7
57049;PMS7003;42935;50.966;16.992;2022-08-21T03:25:15;10;9;7
57049;PMS7003;42935;50.966;16.992;2022-08-21T03:28:26;9;9;7
57049;PMS7003;42935;50.966;16.992;2022-08-21T03:31:37;9;9;6
57049;PMS7003;42935;50.966;16.992;2022-08-21T03:34:49;11;8;6
57049;PMS7003;42935;50.966;16.992;2022-08-21T03:38:02;12;9;7
57049;PMS7003;42935;50.966;16.992;2022-08-21T03:41:12;10;8;6
57049;PMS7003;42935;50.966;16.992;2022-08-21T03:44:23;9;8;7
57049;PMS7003;42935;50.966;16.992;2022-08-21T03:47:36;10;8;6
57049;PMS7003;42935;50.966;16.992;2022-08-21T03:50:51;7;7;5
57049;PMS7003;42935;50.966;16.992;2022-08-21T03:54:03;9;8;6
57049;PMS7003;42935;50.966;16.992;2022-08-21T03:57:14;6;6;5
57049;PMS7003;42935;50.966;16.992;2022-08-21T04:00:25;9;8;6
57049;PMS7003;42935;50.966;16.992;2022-08-21T04:03:36;6;5;4
57049;PMS7003;42935;50.966;16.992;2022-08-21T04:06:47;6;5;4
57049;PMS7003;42935;50.966;16.992;2022-08-21T04:09:58;8;6;4
57049;PMS7003;42935;50.966;16.992;2022-08-21T04:13:11;7;6;4
57049;PMS7003;42935;50.966;16.992;2022-08-21T04:16:26;9;5;4
57049;PMS7003;42935;50.966;16.992;2022-08-21T04:19:37;7;6;5
57049;PMS7003;42935;50.966;16.992;2022-08-21T04:22:48;7;7;6
57049;PMS7003;42935;50.966;16.992;2022-08-21T04:25:59;7;6;4
57049;PMS7003;42935;50.966;16.992;2022-08-21T04:29:10;7;7;5
57049;PMS7003;42935;50.966;16.992;2022-08-21T04:32:24;7;7;5
57049;PMS7003;42935;50.966;16.992;2022-08-21T04:35:35;8;8;6
57049;PMS7003;42935;50.966;16.992;2022-08-21T04:38:46;7;5;5
57049;PMS7003;42935;50.966;16.992;2022-08-21T04:41:56;7;6;4
57049;PMS7003;42935;50.966;16.992;2022-08-21T04:45:32;7;6;4
57049;PMS7003;42935;50.966;16.992;2022-08-21T04:48:33;5;5;4
57049;PMS7003;42935;50.966;16.992;2022-08-21T04:52:15;6;6;5
57049;PMS7003;42935;50.966;16.992;2022-08-21T04:55:31;5;5;3
57049;PMS7003;42935;50.966;16.992;2022-08-21T04:58:41;8;5;3
57049;PMS7003;42935;50.966;16.992;2022-08-21T05:01:54;5;5;3
57049;PMS7003;42935;50.966;16.992;2022-08-21T05:05:05;6;5;4
57049;PMS7003;42935;50.966;16.992;2022-08-21T05:08:17;4;4;3
57049;PMS7003;42935;50.966;16.992;2022-08-21T05:11:31;6;4;4
57049;PMS7003;42935;50.966;16.992;2022-08-21T05:14:44;5;5;4
57049;PMS7003;42935;50.966;16.992;2022-08-21T05:17:57;5;5;4
57049;PMS7003;42935;50.966;16.992;2022-08-21T05:21:06;5;4;4
57049;PMS7003;42935;50.966;16.992;2022-08-21T05:24:17;5;5;4
57049;PMS7003;42935;50.966;16.992;2022-08-21T05:27:56;4;4;3
57049;PMS7003;42935;50.966;16.992;2022-08-21T05:31:07;6;5;4
57049;PMS7003;42935;50.966;16.992;2022-08-21T05:34:18;5;5;3
57049;PMS7003;42935;50.966;16.992;2022-08-21T05:37:30;5;5;3
57049;PMS7003;42935;50.966;16.992;2022-08-21T05:40:42;4;4;3
57049;PMS7003;42935;50.966;16.992;2022-08-21T05:43:53;6;6;4
57049;PMS7003;42935;50.966;16.992;2022-08-21T05:47:07;7;5;4
57049;PMS7003;42935;50.966;16.992;2022-08-21T05:50:20;7;7;5
57049;PMS7003;42935;50.966;16.992;2022-08-21T05:53:30;5;4;3
57049;PMS7003;42935;50.966;16.992;2022-08-21T05:56:42;4;4;3
57049;PMS7003;42935;50.966;16.992;2022-08-21T05:59:53;6;5;4
57049;PMS7003;42935;50.966;16.992;2022-08-21T06:03:13;7;6;4
57049;PMS7003;42935;50.966;16.992;2022-08-21T06:06:31;6;5;4
57049;PMS7003;42935;50.966;16.992;2022-08-21T06:09:40;4;4;3
57049;PMS7003;42935;50.966;16.992;2022-08-21T06:12:53;5;4;3
57049;PMS7003;42935;50.966;16.992;2022-08-21T06:16:15;5;4;3
57049;PMS7003;42935;50.966;16.992;2022-08-21T06:19:21;5;4;3
57049;PMS7003;42935;50.966;16.992;2022-08-21T06:22:32;5;5;4
57049;PMS7003;42935;50.966;16.992;2022-08-21T06:25:43;7;6;5
57049;PMS7003;42935;50.966;16.992;2022-08-21T06:28:52;5;5;4
57049;PMS7003;42935;50.966;16.992;2022-08-21T06:32:04;4;3;3
57049;PMS7003;42935;50.966;16.992;2022-08-21T06:35:19;2;2;2
57049;PMS7003;42935;50.966;16.992;2022-08-21T06:38:30;3;1;1
57049;PMS7003;42935;50.966;16.992;2022-08-21T06:41:40;1;1;1
57049;PMS7003;42935;50.966;16.992;2022-08-21T06:44:46;3;1;1
57049;PMS7003;42935;50.966;16.992;2022-08-21T06:47:58;6;4;3
57049;PMS7003;42935;50.966;16.992;2022-08-21T06:51:09;6;6;4
57049;PMS7003;42935;50.966;16.992;2022-08-21T06:54:20;5;5;4
57049;PMS7003;42935;50.966;16.992;2022-08-21T06:57:33;9;5;4
57049;PMS7003;42935;50.966;16.992;2022-08-21T07:00:45;6;5;5
57049;PMS7003;42935;50.966;16.992;2022-08-21T07:03:56;6;6;5
57049;PMS7003;42935;50.966;16.992;2022-08-21T07:07:08;8;7;5
57049;PMS7003;42935;50.966;16.992;2022-08-21T07:10:19;8;7;6
57049;PMS7003;42935;50.966;16.992;2022-08-21T07:13:30;6;6;5
57049;PMS7003;42935;50.966;16.992;2022-08-21T07:16:38;6;6;5
57049;PMS7003;42935;50.966;16.992;2022-08-21T07:19:48;9;8;5
57049;PMS7003;42935;50.966;16.992;2022-08-21T07:23:04;10;8;6
57049;PMS7003;42935;50.966;16.992;2022-08-21T07:26:15;9;7;6
57049;PMS7003;42935;50.966;16.992;2022-08-21T07:29:29;10;8;6
57049;PMS7003;42935;50.966;16.992;2022-08-21T07:32:39;11;8;6
57049;PMS7003;42935;50.966;16.992;2022-08-21T07:35:51;8;7;5
57049;PMS7003;42935;50.966;16.992;2022-08-21T07:39:30;10;8;6
57049;PMS7003;42935;50.966;16.992;2022-08-21T07:42:41;10;7;6
57049;PMS7003;42935;50.966;16.992;2022-08-21T07:45:55;9;7;5
57049;PMS7003;42935;50.966;16.992;2022-08-21T07:49:08;7;7;5
57049;PMS7003;42935;50.966;16.992;2022-08-21T07:52:48;8;6;5
57049;PMS7003;42935;50.966;16.992;2022-08-21T07:55:58;6;6;5
57049;PMS7003;42935;50.966;16.992;2022-08-21T07:59:09;8;6;5
57049;PMS7003;42935;50.966;16.992;2022-08-21T08:02:23;12;9;5
57049;PMS7003;42935;50.966;16.992;2022-08-21T08:05:37;10;8;6
57049;PMS7003;42935;50.966;16.992;2022-08-21T08:08:48;9;6;5
57049;PMS7003;42935;50.966;16.992;2022-08-21T08:11:59;9;8;5
57049;PMS7003;42935;50.966;16.992;2022-08-21T08:15:11;9;7;5
57049;PMS7003;42935;50.966;16.992;2022-08-21T08:18:24;9;7;6
57049;PMS7003;42935;50.966;16.992;2022-08-21T08:21:31;8;8;5
57049;PMS7003;42935;50.966;16.992;2022-08-21T08:24:42;7;7;5
57049;PMS7003;42935;50.966;16.992;2022-08-21T08:27:52;7;7;5
57049;PMS7003;42935;50.966;16.992;2022-08-21T08:31:02;7;6;5
57049;PMS7003;42935;50.966;16.992;2022-08-21T08:34:15;8;8;6
57049;PMS7003;42935;50.966;16.992;2022-08-21T08:37:26;8;7;5
57049;PMS7003;42935;50.966;16.992;2022-08-21T08:40:47;6;6;6
57049;PMS7003;42935;50.966;16.992;2022-08-21T08:43:59;9;7;6
57049;PMS7003;42935;50.966;16.992;2022-08-21T08:47:43;11;8;6
57049;PMS7003;42935;50.966;16.992;2022-08-21T08:51:03;10;8;6
57049;PMS7003;42935;50.966;16.992;2022-08-21T08:54:28;7;6;5
57049;PMS7003;42935;50.966;16.992;2022-08-21T08:57:47;8;6;5
57049;PMS7003;42935;50.966;16.992;2022-08-21T09:00:58;10;7;5
57049;PMS7003;42935;50.966;16.992;2022-08-21T09:04:09;6;6;5
57049;PMS7003;42935;50.966;16.992;2022-08-21T09:07:28;6;5;5
57049;PMS7003;42935;50.966;16.992;2022-08-21T09:27:39;5;4;3
57049;PMS7003;42935;50.966;16.992;2022-08-21T09:30:49;5;4;3
57049;PMS7003;42935;50.966;16.992;2022-08-21T09:34:00;5;4;3
57049;PMS7003;42935;50.966;16.992;2022-08-21T09:37:17;6;4;3
57049;PMS7003;42935;50.966;16.992;2022-08-21T09:43:52;5;4;3
57049;PMS7003;42935;50.966;16.992;2022-08-21T09:47:02;5;4;3
57049;PMS7003;42935;50.966;16.992;2022-08-21T09:53:37;7;4;3
57049;PMS7003;42935;50.966;16.992;2022-08-21T09:56:52;4;3;3
57049;PMS7003;42935;50.966;16.992;2022-08-21T10:00:19;6;5;4
57049;PMS7003;42935;50.966;16.992;2022-08-21T10:03:34;4;4;3
57049;PMS7003;42935;50.966;16.992;2022-08-21T10:06:46;8;4;3
57049;PMS7003;42935;50.966;16.992;2022-08-21T10:30:12;5;4;3
57049;PMS7003;42935;50.966;16.992;2022-08-21T10:36:52;6;5;4
57049;PMS7003;42935;50.966;16.992;2022-08-21T10:40:15;5;4;3
57049;PMS7003;42935;50.966;16.992;2022-08-21T10:46:53;4;4;3
57049;PMS7003;42935;50.966;16.992;2022-08-21T10:57:00;5;4;3
57049;PMS7003;42935;50.966;16.992;2022-08-21T11:00:18;7;4;3
57049;PMS7003;42935;50.966;16.992;2022-08-21T11:03:39;6;5;4
57049;PMS7003;42935;50.966;16.992;2022-08-21T11:07:02;5;3;3
57049;PMS7003;42935;50.966;16.992;2022-08-21T11:16:49;5;4;4
57049;PMS7003;42935;50.966;16.992;2022-08-21T11:26:52;5;3;3
57049;PMS7003;42935;50.966;16.992;2022-08-21T11:30:10;3;3;2
57049;PMS7003;42935;50.966;16.992;2022-08-21T11:37:02;5;5;3
57049;PMS7003;42935;50.966;16.992;2022-08-21T11:40:24;7;3;2
57049;PMS7003;42935;50.966;16.992;2022-08-21T11:43:40;6;3;3
57049;PMS7003;42935;50.966;16.992;2022-08-21T11:53:40;3;3;2
57049;PMS7003;42935;50.966;16.992;2022-08-21T12:00:27;4;3;2
57049;PMS7003;42935;50.966;16.992;2022-08-21T12:08:01;7;5;3
57049;PMS7003;42935;50.966;16.992;2022-08-21T12:11:23;4;4;3
57049;PMS7003;42935;50.966;16.992;2022-08-21T12:14:40;4;4;3
57049;PMS7003;42935;50.966;16.992;2022-08-21T12:17:59;3;3;2
57049;PMS7003;42935;50.966;16.992;2022-08-21T12:24:36;6;5;4
57049;PMS7003;42935;50.966;16.992;2022-08-21T12:27:52;5;5;4
57049;PMS7003;42935;50.966;16.992;2022-08-21T12:34:32;5;4;3
57049;PMS7003;42935;50.966;16.992;2022-08-21T12:41:15;4;4;3
57049;PMS7003;42935;50.966;16.992;2022-08-21T12:44:43;5;4;3
57049;PMS7003;42935;50.966;16.992;2022-08-21T12:54:41;3;3;2
57049;PMS7003;42935;50.966;16.992;2022-08-21T12:57:53;2;2;2
57049;PMS7003;42935;50.966;16.992;2022-08-21T13:01:07;3;3;3
57049;PMS7003;42935;50.966;16.992;2022-08-21T13:07:50;4;3;2
57049;PMS7003;42935;50.966;16.992;2022-08-21T13:11:00;4;4;3
57049;PMS7003;42935;50.966;16.992;2022-08-21T13:14:17;4;4;3
57049;PMS7003;42935;50.966;16.992;2022-08-21T13:17:38;4;3;3
57049;PMS7003;42935;50.966;16.992;2022-08-21T13:20:51;4;3;2
57049;PMS7003;42935;50.966;16.992;2022-08-21T13:27:29;3;3;3
57049;PMS7003;42935;50.966;16.992;2022-08-21T13:30:42;3;3;2
57049;PMS7003;42935;50.966;16.992;2022-08-21T13:33:56;6;4;3
57049;PMS7003;42935;50.966;16.992;2022-08-21T13:37:06;5;3;2
57049;PMS7003;42935;50.966;16.992;2022-08-21T13:40:32;4;4;3
57049;PMS7003;42935;50.966;16.992;2022-08-21T13:43:44;6;4;3
57049;PMS7003;42935;50.966;16.992;2022-08-21T13:47:00;5;5;4
57049;PMS7003;42935;50.966;16.992;2022-08-21T13:50:13;5;4;2
57049;PMS7003;42935;50.966;16.992;2022-08-21T13:56:46;5;4;3
57049;PMS7003;42935;50.966;16.992;2022-08-21T14:06:39;6;5;4
57049;PMS7003;42935;50.966;16.992;2022-08-21T14:09:50;5;5;4
57049;PMS7003;42935;50.966;16.992;2022-08-21T14:13:02;6;5;5
57049;PMS7003;42935;50.966;16.992;2022-08-21T14:16:18;10;7;5
57049;PMS7003;42935;50.966;16.992;2022-08-21T14:19:36;8;6;5
57049;PMS7003;42935;50.966;16.992;2022-08-21T14:22:53;8;8;6
57049;PMS7003;42935;50.966;16.992;2022-08-21T14:26:06;7;7;6
57049;PMS7003;42935;50.966;16.992;2022-08-21T14:29:19;7;6;5
57049;PMS7003;42935;50.966;16.992;2022-08-21T14:32:37;8;7;5
57049;PMS7003;42935;50.966;16.992;2022-08-21T14:36:16;7;7;5
57049;PMS7003;42935;50.966;16.992;2022-08-21T14:39:26;8;7;5
57049;PMS7003;42935;50.966;16.992;2022-08-21T14:42:37;9;6;5
57049;PMS7003;42935;50.966;16.992;2022-08-21T14:45:51;7;6;5
57049;PMS7003;42935;50.966;16.992;2022-08-21T14:49:02;8;6;5
57049;PMS7003;42935;50.966;16.992;2022-08-21T14:52:12;5;5;5
57049;PMS7003;42935;50.966;16.992;2022-08-21T14:55:23;10;7;6
57049;PMS7003;42935;50.966;16.992;2022-08-21T14:58:38;8;8;6
57049;PMS7003;42935;50.966;16.992;2022-08-21T15:01:50;8;7;6
57049;PMS7003;42935;50.966;16.992;2022-08-21T15:05:01;9;7;7
57049;PMS7003;42935;50.966;16.992;2022-08-21T15:08:12;10;9;7
57049;PMS7003;42935;50.966;16.992;2022-08-21T15:11:22;8;7;6
57049;PMS7003;42935;50.966;16.992;2022-08-21T15:14:34;8;8;6
57049;PMS7003;42935;50.966;16.992;2022-08-21T15:17:51;9;9;5
57049;PMS7003;42935;50.966;16.992;2022-08-21T15:21:01;9;9;7
57049;PMS7003;42935;50.966;16.992;2022-08-21T15:24:12;8;8;6
57049;PMS7003;42935;50.966;16.992;2022-08-21T15:27:22;12;8;7
57049;PMS7003;42935;50.966;16.992;2022-08-21T15:30:33;8;8;6
57049;PMS7003;42935;50.966;16.992;2022-08-21T15:33:45;12;9;7
57049;PMS7003;42935;50.966;16.992;2022-08-21T15:36:56;12;8;7
57049;PMS7003;42935;50.966;16.992;2022-08-21T15:40:09;9;8;6
57049;PMS7003;42935;50.966;16.992;2022-08-21T15:43:25;10;8;6
57049;PMS7003;42935;50.966;16.992;2022-08-21T15:46:40;12;10;8
57049;PMS7003;42935;50.966;16.992;2022-08-21T15:49:54;9;8;7
57049;PMS7003;42935;50.966;16.992;2022-08-21T15:53:04;9;8;6
57049;PMS7003;42935;50.966;16.992;2022-08-21T15:56:22;10;9;6
57049;PMS7003;42935;50.966;16.992;2022-08-21T15:59:44;10;8;6
57049;PMS7003;42935;50.966;16.992;2022-08-21T16:02:57;11;11;7
57049;PMS7003;42935;50.966;16.992;2022-08-21T16:06:08;9;8;6
57049;PMS7003;42935;50.966;16.992;2022-08-21T16:09:18;10;9;7
57049;PMS7003;42935;50.966;16.992;2022-08-21T16:12:29;11;10;6
57049;PMS7003;42935;50.966;16.992;2022-08-21T16:15:41;14;10;7
57049;PMS7003;42935;50.966;16.992;2022-08-21T16:18:51;11;10;7
57049;PMS7003;42935;50.966;16.992;2022-08-21T16:22:02;10;10;8
57049;PMS7003;42935;50.966;16.992;2022-08-21T16:25:15;8;8;6
57049;PMS7003;42935;50.966;16.992;2022-08-21T16:28:25;9;8;7
57049;PMS7003;42935;50.966;16.992;2022-08-21T16:31:35;10;9;7
57049;PMS7003;42935;50.966;16.992;2022-08-21T16:34:52;12;9;7
57049;PMS7003;42935;50.966;16.992;2022-08-21T16:38:01;12;10;8
57049;PMS7003;42935;50.966;16.992;2022-08-21T16:41:12;15;10;7
57049;PMS7003;42935;50.966;16.992;2022-08-21T16:44:27;13;10;7
57049;PMS7003;42935;50.966;16.992;2022-08-21T16:47:38;12;10;7
57049;PMS7003;42935;50.966;16.992;2022-08-21T16:50:48;10;10;8
57049;PMS7003;42935;50.966;16.992;2022-08-21T16:53:59;10;9;6
57049;PMS7003;42935;50.966;16.992;2022-08-21T16:57:10;11;8;6
57049;PMS7003;42935;50.966;16.992;2022-08-21T17:00:21;11;9;7
57049;PMS7003;42935;50.966;16.992;2022-08-21T17:03:33;9;9;7
57049;PMS7003;42935;50.966;16.992;2022-08-21T17:06:49;11;9;6
57049;PMS7003;42935;50.966;16.992;2022-08-21T17:10:00;9;9;7
57049;PMS7003;42935;50.966;16.992;2022-08-21T17:13:10;7;6;5
57049;PMS7003;42935;50.966;16.992;2022-08-21T17:16:22;6;6;4
57049;PMS7003;42935;50.966;16.992;2022-08-21T17:19:33;5;5;4
57049;PMS7003;42935;50.966;16.992;2022-08-21T17:22:42;7;6;5
57049;PMS7003;42935;50.966;16.992;2022-08-21T17:25:49;7;6;5
57049;PMS7003;42935;50.966;16.992;2022-08-21T17:29:03;7;7;5
57049;PMS7003;42935;50.966;16.992;2022-08-21T17:32:19;6;5;4
57049;PMS7003;42935;50.966;16.992;2022-08-21T17:35:29;4;4;4
57049;PMS7003;42935;50.966;16.992;2022-08-21T17:38:39;5;4;3
57049;PMS7003;42935;50.966;16.992;2022-08-21T17:41:50;8;6;4
57049;PMS7003;42935;50.966;16.992;2022-08-21T17:45:03;4;4;3
57049;PMS7003;42935;50.966;16.992;2022-08-21T17:48:13;5;4;3
57049;PMS7003;42935;50.966;16.992;2022-08-21T17:51:26;4;4;3
57049;PMS7003;42935;50.966;16.992;2022-08-21T17:54:36;6;5;4
57049;PMS7003;42935;50.966;16.992;2022-08-21T17:57:51;5;4;3
57049;PMS7003;42935;50.966;16.992;2022-08-21T18:01:02;5;4;3
57049;PMS7003;42935;50.966;16.992;2022-08-21T18:04:13;5;5;4
57049;PMS7003;42935;50.966;16.992;2022-08-21T18:07:24;5;4;4
57049;PMS7003;42935;50.966;16.992;2022-08-21T18:10:34;6;3;3
57049;PMS7003;42935;50.966;16.992;2022-08-21T18:13:45;5;5;4
57049;PMS7003;42935;50.966;16.992;2022-08-21T18:16:56;4;4;3
57049;PMS7003;42935;50.966;16.992;2022-08-21T18:20:07;4;4;3
57049;PMS7003;42935;50.966;16.992;2022-08-21T18:23:20;4;4;3
57049;PMS7003;42935;50.966;16.992;2022-08-21T18:26:32;4;4;3
57049;PMS7003;42935;50.966;16.992;2022-08-21T18:29:47;6;4;3
57049;PMS7003;42935;50.966;16.992;2022-08-21T18:33:02;5;4;3
57049;PMS7003;42935;50.966;16.992;2022-08-21T18:36:13;5;4;3
57049;PMS7003;42935;50.966;16.992;2022-08-21T18:39:23;5;3;3
57049;PMS7003;42935;50.966;16.992;2022-08-21T18:42:39;4;4;3
57049;PMS7003;42935;50.966;16.992;2022-08-21T18:45:52;4;4;3
57049;PMS7003;42935;50.966;16.992;2022-08-21T18:49:02;5;4;3
57049;PMS7003;42935;50.966;16.992;2022-08-21T18:52:14;4;4;3
57049;PMS7003;42935;50.966;16.992;2022-08-21T18:55:25;4;4;3
57049;PMS7003;42935;50.966;16.992;2022-08-21T18:58:38;5;4;4
57049;PMS7003;42935;50.966;16.992;2022-08-21T19:01:50;5;5;4
57049;PMS7003;42935;50.966;16.992;2022-08-21T19:05:04;4;4;3
57049;PMS7003;42935;50.966;16.992;2022-08-21T19:08:20;4;4;3
57049;PMS7003;42935;50.966;16.992;2022-08-21T19:11:35;5;4;3
57049;PMS7003;42935;50.966;16.992;2022-08-21T19:14:49;4;4;3
57049;PMS7003;42935;50.966;16.992;2022-08-21T19:18:03;3;3;2
57049;PMS7003;42935;50.966;16.992;2022-08-21T19:21:19;5;4;3
57049;PMS7003;42935;50.966;16.992;2022-08-21T19:24:32;4;4;3
57049;PMS7003;42935;50.966;16.992;2022-08-21T19:27:42;5;4;3
57049;PMS7003;42935;50.966;16.992;2022-08-21T19:31:01;5;4;3
57049;PMS7003;42935;50.966;16.992;2022-08-21T19:34:17;5;5;3
57049;PMS7003;42935;50.966;16.992;2022-08-21T19:37:34;4;4;3
57049;PMS7003;42935;50.966;16.992;2022-08-21T19:40:43;7;5;4
57049;PMS7003;42935;50.966;16.992;2022-08-21T19:43:54;5;4;3
57049;PMS7003;42935;50.966;16.992;2022-08-21T19:47:12;6;6;4
57049;PMS7003;42935;50.966;16.992;2022-08-21T19:50:25;6;5;4
57049;PMS7003;42935;50.966;16.992;2022-08-21T19:53:45;5;4;3
57049;PMS7003;42935;50.966;16.992;2022-08-21T19:57:00;5;5;4
57049;PMS7003;42935;50.966;16.992;2022-08-21T20:00:12;5;4;3
57049;PMS7003;42935;50.966;16.992;2022-08-21T20:03:26;8;6;4
57049;PMS7003;42935;50.966;16.992;2022-08-21T20:07:07;5;5;4
57049;PMS7003;42935;50.966;16.992;2022-08-21T20:10:13;5;5;4
57049;PMS7003;42935;50.966;16.992;2022-08-21T20:13:24;5;5;4
57049;PMS7003;42935;50.966;16.992;2022-08-21T20:16:34;7;6;5
57049;PMS7003;42935;50.966;16.992;2022-08-21T20:19:47;5;5;4
57049;PMS7003;42935;50.966;16.992;2022-08-21T20:22:58;5;5;4
57049;PMS7003;42935;50.966;16.992;2022-08-21T20:26:08;6;6;4
57049;PMS7003;42935;50.966;16.992;2022-08-21T20:29:19;9;7;5
57049;PMS7003;42935;50.966;16.992;2022-08-21T20:32:30;12;5;4
57049;PMS7003;42935;50.966;16.992;2022-08-21T20:35:48;7;6;5
57049;PMS7003;42935;50.966;16.992;2022-08-21T20:39:00;5;4;3
57049;PMS7003;42935;50.966;16.992;2022-08-21T20:42:12;7;6;4
57049;PMS7003;42935;50.966;16.992;2022-08-21T20:45:25;8;5;4
57049;PMS7003;42935;50.966;16.992;2022-08-21T20:48:40;5;5;4
57049;PMS7003;42935;50.966;16.992;2022-08-21T20:51:51;6;5;4
57049;PMS7003;42935;50.966;16.992;2022-08-21T20:55:08;6;6;4
57049;PMS7003;42935;50.966;16.992;2022-08-21T20:58:27;6;6;5
57049;PMS7003;42935;50.966;16.992;2022-08-21T21:01:46;5;5;3
57049;PMS7003;42935;50.966;16.992;2022-08-21T21:11:46;7;6;4
57049;PMS7003;42935;50.966;16.992;2022-08-21T21:15:05;6;5;4
57049;PMS7003;42935;50.966;16.992;2022-08-21T21:22:17;5;4;3
57049;PMS7003;42935;50.966;16.992;2022-08-21T21:25:38;7;5;4
57049;PMS7003;42935;50.966;16.992;2022-08-21T21:29:00;5;5;4
57049;PMS7003;42935;50.966;16.992;2022-08-21T21:32:20;6;6;5
57049;PMS7003;42935;50.966;16.992;2022-08-21T21:35:34;7;6;4
57049;PMS7003;42935;50.966;16.992;2022-08-21T21:38:51;6;5;4
57049;PMS7003;42935;50.966;16.992;2022-08-21T21:42:10;6;5;4
57049;PMS7003;42935;50.966;16.992;2022-08-21T21:45:28;6;6;4
57049;PMS7003;42935;50.966;16.992;2022-08-21T21:48:52;8;5;4
57049;PMS7003;42935;50.966;16.992;2022-08-21T21:52:46;10;7;5
57049;PMS7003;42935;50.966;16.992;2022-08-21T22:06:09;4;4;3
57049;PMS7003;42935;50.966;16.992;2022-08-21T22:12:49;7;5;4
57049;PMS7003;42935;50.966;16.992;2022-08-21T22:16:07;6;6;4
57049;PMS7003;42935;50.966;16.992;2022-08-21T22:19:19;7;5;4
57049;PMS7003;42935;50.966;16.992;2022-08-21T22:22:34;7;6;4
57049;PMS7003;42935;50.966;16.992;2022-08-21T22:25:47;7;5;4
57049;PMS7003;42935;50.966;16.992;2022-08-21T22:29:02;7;5;4
57049;PMS7003;42935;50.966;16.992;2022-08-21T22:35:34;6;5;4
57049;PMS7003;42935;50.966;16.992;2022-08-21T22:38:46;7;6;5
57049;PMS7003;42935;50.966;16.992;2022-08-21T22:41:56;10;6;5
57049;PMS7003;42935;50.966;16.992;2022-08-21T22:45:17;6;6;4
57049;PMS7003;42935;50.966;16.992;2022-08-21T22:48:31;6;5;5
57049;PMS7003;42935;50.966;16.992;2022-08-21T22:51:46;9;6;4
57049;PMS7003;42935;50.966;16.992;2022-08-21T22:54:59;6;6;5
57049;PMS7003;42935;50.966;16.992;2022-08-21T22:58:19;8;6;5
57049;PMS7003;42935;50.966;16.992;2022-08-21T23:01:42;7;6;5
57049;PMS7003;42935;50.966;16.992;2022-08-21T23:04:55;9;6;5
57049;PMS7003;42935;50.966;16.992;2022-08-21T23:11:37;9;8;5
57049;PMS7003;42935;50.966;16.992;2022-08-21T23:14:50;8;7;6
57049;PMS7003;42935;50.966;16.992;2022-08-21T23:18:14;8;7;5
57049;PMS7003;42935;50.966;16.992;2022-08-21T23:35:34;10;7;6
57049;PMS7003;42935;50.966;16.992;2022-08-21T23:39:10;8;6;4
57049;PMS7003;42935;50.966;16.992;2022-08-21T23:42:33;8;6;5
